createdAt,value
2022-12-31T00:00:22.227Z,4.58
2022-12-31T00:03:10.123Z,4.60
2022-12-31T00:05:37.737Z,4.61
2022-12-31T00:08:04.960Z,4.59
2022-12-31T00:10:34.285Z,4.60
2022-12-31T00:13:01.358Z,4.61
2022-12-31T00:15:28.731Z,4.61
2022-12-31T00:17:55.893Z,4.59
2022-12-31T00:20:22.997Z,4.58
2022-12-31T00:22:50.550Z,4.57
2022-12-31T00:25:17.704Z,4.58
2022-12-31T00:27:44.830Z,4.58
2022-12-31T00:30:12.598Z,4.60
2022-12-31T00:32:39.636Z,4.60
2022-12-31T00:35:07.487Z,4.58
2022-12-31T00:37:34.623Z,4.54
2022-12-31T00:40:01.784Z,4.52
2022-12-31T00:42:28.989Z,4.52
2022-12-31T00:44:56.005Z,4.55
2022-12-31T00:47:24.727Z,4.59
2022-12-31T00:49:52.073Z,4.57
2022-12-31T00:52:19.351Z,4.53
2022-12-31T00:54:46.476Z,4.54
2022-12-31T00:57:13.989Z,4.56
2022-12-31T00:59:41.496Z,4.57
2022-12-31T01:02:08.821Z,4.57
2022-12-31T01:04:36.030Z,4.56
2022-12-31T01:07:03.152Z,4.55
2022-12-31T01:09:30.199Z,4.55
2022-12-31T01:11:57.328Z,4.59
2022-12-31T01:14:24.451Z,4.61
2022-12-31T01:16:53.484Z,4.59
2022-12-31T01:19:23.868Z,4.57
2022-12-31T01:21:51.767Z,4.57
2022-12-31T01:24:19.698Z,4.57
2022-12-31T01:26:47.274Z,4.58
2022-12-31T01:29:14.788Z,4.60
2022-12-31T01:31:41.849Z,4.62
2022-12-31T01:34:09.851Z,4.61
2022-12-31T01:36:38.146Z,4.62
2022-12-31T01:39:07.472Z,4.64
2022-12-31T01:41:41.724Z,4.65
2022-12-31T01:44:11.835Z,4.66
2022-12-31T01:46:58.484Z,4.68
2022-12-31T01:49:36.703Z,4.67
2022-12-31T01:52:06.528Z,4.67
2022-12-31T01:54:38.044Z,4.70
2022-12-31T01:57:06.986Z,4.74
2022-12-31T01:59:34.538Z,4.75
2022-12-31T02:02:02.162Z,4.76
2022-12-31T02:04:29.871Z,4.77
2022-12-31T02:07:02.784Z,4.82
2022-12-31T02:09:31.608Z,4.85
2022-12-31T02:11:58.707Z,4.88
2022-12-31T02:14:29.228Z,4.92
2022-12-31T02:17:02.479Z,4.95
2022-12-31T02:20:05.259Z,4.98
2022-12-31T02:22:41.270Z,5.01
2022-12-31T02:25:52.596Z,5.03
2022-12-31T02:28:25.766Z,5.04
2022-12-31T02:31:06.422Z,5.04
2022-12-31T02:33:43.040Z,5.05
2022-12-31T02:36:17.451Z,5.07
2022-12-31T02:38:47.654Z,5.06
2022-12-31T02:41:37.101Z,5.05
2022-12-31T02:44:27.524Z,5.05
2022-12-31T02:47:09.767Z,5.06
2022-12-31T02:50:02.595Z,5.07
2022-12-31T02:52:50.414Z,5.06
2022-12-31T02:55:26.779Z,5.06
2022-12-31T02:57:59.897Z,5.07
2022-12-31T03:00:48.216Z,5.07
2022-12-31T03:03:15.396Z,5.06
2022-12-31T03:05:45.064Z,5.07
2022-12-31T03:08:12.124Z,5.07
2022-12-31T03:10:39.430Z,5.09
2022-12-31T03:13:06.507Z,5.11
2022-12-31T03:15:34.647Z,5.11
2022-12-31T03:18:01.704Z,5.12
2022-12-31T03:20:57.332Z,5.14
2022-12-31T03:23:28.411Z,5.16
2022-12-31T03:25:57.151Z,5.16
2022-12-31T03:28:26.554Z,5.17
2022-12-31T03:30:56.679Z,5.19
2022-12-31T03:33:24.431Z,5.22
2022-12-31T03:35:53.081Z,5.23
2022-12-31T03:38:20.990Z,5.25
2022-12-31T03:40:50.858Z,5.25
2022-12-31T03:43:19.671Z,5.26
2022-12-31T03:45:58.385Z,5.28
2022-12-31T03:48:26.383Z,5.33
2022-12-31T03:50:53.470Z,5.34
2022-12-31T03:53:20.621Z,5.34
2022-12-31T03:55:52.279Z,5.36
2022-12-31T03:58:19.419Z,5.39
2022-12-31T04:00:46.520Z,5.40
2022-12-31T04:03:13.660Z,5.42
2022-12-31T04:05:41.388Z,5.43
2022-12-31T04:08:08.493Z,5.44
2022-12-31T04:10:35.552Z,5.46
2022-12-31T04:13:04.827Z,5.47
2022-12-31T04:15:32.420Z,5.47
2022-12-31T04:17:59.491Z,5.46
2022-12-31T04:20:26.550Z,5.45
2022-12-31T04:22:53.606Z,5.46
2022-12-31T04:25:20.691Z,5.45
2022-12-31T04:27:47.936Z,5.45
2022-12-31T04:30:15.482Z,5.45
2022-12-31T04:32:42.916Z,5.44
2022-12-31T04:35:11.728Z,5.44
2022-12-31T04:37:39.260Z,5.43
2022-12-31T04:40:07.767Z,5.43
2022-12-31T04:42:36.277Z,5.43
2022-12-31T04:45:04.395Z,5.42
2022-12-31T04:47:31.468Z,5.42
2022-12-31T04:49:58.593Z,5.43
2022-12-31T04:52:25.675Z,5.45
2022-12-31T04:54:52.997Z,5.45
2022-12-31T04:57:20.126Z,5.48
2022-12-31T04:59:47.424Z,5.50
2022-12-31T05:02:15.158Z,5.52
2022-12-31T05:04:43.801Z,5.55
2022-12-31T05:07:10.927Z,5.56
2022-12-31T05:09:37.999Z,5.59
2022-12-31T05:12:05.453Z,5.62
2022-12-31T05:14:32.530Z,5.66
2022-12-31T05:17:01.344Z,5.69
2022-12-31T05:19:28.455Z,5.72
2022-12-31T05:22:14.156Z,5.74
2022-12-31T05:24:41.262Z,5.75
2022-12-31T05:27:08.332Z,5.78
2022-12-31T05:29:35.376Z,5.80
2022-12-31T05:32:02.453Z,5.83
2022-12-31T05:34:29.606Z,5.85
2022-12-31T05:36:56.728Z,5.88
2022-12-31T05:39:23.800Z,5.89
2022-12-31T05:41:51.727Z,5.89
2022-12-31T05:44:18.855Z,5.92
2022-12-31T05:46:47.241Z,5.94
2022-12-31T05:49:14.558Z,5.97
2022-12-31T05:51:41.728Z,5.99
2022-12-31T05:54:08.758Z,6.02
2022-12-31T05:56:36.852Z,6.03
2022-12-31T05:59:04.205Z,6.03
2022-12-31T06:01:31.377Z,6.05
2022-12-31T06:03:58.767Z,6.06
2022-12-31T06:06:26.141Z,6.07
2022-12-31T06:08:53.757Z,6.08
2022-12-31T06:11:20.856Z,6.09
2022-12-31T06:13:48.009Z,6.10
2022-12-31T06:16:15.178Z,6.11
2022-12-31T06:18:42.358Z,6.13
2022-12-31T06:21:09.401Z,6.14
2022-12-31T06:23:36.427Z,6.16
2022-12-31T06:26:06.702Z,6.17
2022-12-31T06:28:33.882Z,6.17
2022-12-31T06:31:03.279Z,6.18
2022-12-31T06:33:30.555Z,6.19
2022-12-31T06:36:02.766Z,6.20
2022-12-31T06:38:31.361Z,6.22
2022-12-31T06:40:58.516Z,6.24
2022-12-31T06:43:25.614Z,6.26
2022-12-31T06:45:52.638Z,6.27
2022-12-31T06:48:19.837Z,6.29
2022-12-31T06:50:46.967Z,6.30
2022-12-31T06:53:14.188Z,6.31
2022-12-31T06:55:42.279Z,6.32
2022-12-31T06:58:13.890Z,6.34
2022-12-31T07:00:58.003Z,6.36
2022-12-31T07:03:42.116Z,6.36
2022-12-31T07:06:21.834Z,6.38
2022-12-31T07:09:14.096Z,6.40
2022-12-31T07:11:54.534Z,6.44
2022-12-31T07:14:37.711Z,6.47
2022-12-31T07:17:16.947Z,6.49
2022-12-31T07:19:57.906Z,6.52
2022-12-31T07:22:25.613Z,6.54
2022-12-31T07:24:53.068Z,6.57
2022-12-31T07:27:36.095Z,6.60
2022-12-31T07:30:18.036Z,6.65
2022-12-31T07:33:19.131Z,6.67
2022-12-31T07:35:55.447Z,6.70
2022-12-31T07:38:34.787Z,6.73
2022-12-31T07:41:27.205Z,6.78
2022-12-31T07:44:35.802Z,6.83
2022-12-31T07:47:06.005Z,6.86
2022-12-31T07:49:34.070Z,6.89
2022-12-31T07:52:02.557Z,6.92
2022-12-31T07:54:29.655Z,6.96
2022-12-31T07:56:57.856Z,6.99
2022-12-31T07:59:44.661Z,7.03
2022-12-31T08:02:40.351Z,7.06
2022-12-31T08:05:33.955Z,7.08
2022-12-31T08:08:09.472Z,7.12
2022-12-31T08:10:54.991Z,7.14
2022-12-31T08:13:22.218Z,7.18
2022-12-31T08:15:49.586Z,7.19
2022-12-31T08:18:16.931Z,7.21
2022-12-31T08:21:20.712Z,7.24
2022-12-31T08:24:05.372Z,7.28
2022-12-31T08:26:49.465Z,7.32
2022-12-31T08:29:38.400Z,7.36
2022-12-31T08:32:08.982Z,7.40
2022-12-31T08:35:08.397Z,7.43
2022-12-31T08:37:42.014Z,7.46
2022-12-31T08:40:28.599Z,7.49
2022-12-31T08:43:21.651Z,7.53
2022-12-31T08:45:51.352Z,7.54
2022-12-31T08:48:33.599Z,7.55
2022-12-31T08:51:01.098Z,7.59
2022-12-31T08:53:28.437Z,7.61
2022-12-31T08:56:06.866Z,7.64
2022-12-31T08:59:08.199Z,7.68
2022-12-31T09:02:08.810Z,7.72
2022-12-31T09:04:58.026Z,7.78
2022-12-31T09:07:56.687Z,7.83
2022-12-31T09:11:07.750Z,7.90
2022-12-31T09:13:52.587Z,7.98
2022-12-31T09:16:22.582Z,8.00
2022-12-31T09:18:49.883Z,8.01
2022-12-31T09:21:17.057Z,8.03
2022-12-31T09:23:44.479Z,8.03
2022-12-31T09:26:30.407Z,8.04
2022-12-31T09:29:08.810Z,8.06
2022-12-31T09:31:35.865Z,8.06
2022-12-31T09:34:24.396Z,8.07
2022-12-31T09:36:57.716Z,8.09
2022-12-31T09:39:42.277Z,8.11
2022-12-31T09:42:18.659Z,8.13
2022-12-31T09:45:01.098Z,8.15
2022-12-31T09:47:49.197Z,8.16
2022-12-31T09:50:22.205Z,8.16
2022-12-31T09:53:08.095Z,8.17
2022-12-31T09:55:43.337Z,8.19
2022-12-31T09:58:38.289Z,8.21
2022-12-31T10:01:23.639Z,8.22
2022-12-31T10:03:53.730Z,8.24
2022-12-31T10:06:32.435Z,8.25
2022-12-31T10:09:02.532Z,8.27
2022-12-31T10:11:57.333Z,8.29
2022-12-31T10:15:05.747Z,8.31
2022-12-31T10:17:51.759Z,8.31
2022-12-31T10:20:54.397Z,8.32
2022-12-31T10:23:27.364Z,8.33
2022-12-31T10:26:00.241Z,8.35
2022-12-31T10:28:55.402Z,8.36
2022-12-31T10:32:00.617Z,8.38
2022-12-31T10:34:36.932Z,8.41
2022-12-31T10:37:16.375Z,8.42
2022-12-31T10:39:54.761Z,8.44
2022-12-31T10:42:56.071Z,8.46
2022-12-31T10:45:48.076Z,8.46
2022-12-31T10:48:33.716Z,8.47
2022-12-31T10:51:25.694Z,8.48
2022-12-31T10:54:14.807Z,8.50
2022-12-31T10:56:53.964Z,8.53
2022-12-31T10:59:58.076Z,8.54
2022-12-31T11:02:40.836Z,8.54
2022-12-31T11:05:23.534Z,8.55
2022-12-31T11:07:51.909Z,8.56
2022-12-31T11:10:40.312Z,8.55
2022-12-31T11:13:45.128Z,8.52
2022-12-31T11:16:32.658Z,8.48
2022-12-31T11:19:12.047Z,8.46
2022-12-31T11:21:41.360Z,8.43
2022-12-31T11:24:47.567Z,8.43
2022-12-31T11:27:33.084Z,8.41
2022-12-31T11:30:42.023Z,8.41
2022-12-31T11:33:45.451Z,8.39
2022-12-31T11:36:35.992Z,8.40
2022-12-31T11:39:42.233Z,8.41
2022-12-31T11:42:24.836Z,8.44
2022-12-31T11:45:01.503Z,8.47
2022-12-31T11:47:44.745Z,8.50
2022-12-31T11:50:37.137Z,8.54
2022-12-31T11:53:26.316Z,8.58
2022-12-31T11:56:15.893Z,8.60
2022-12-31T11:58:47.743Z,8.62
2022-12-31T12:01:22.455Z,8.65
2022-12-31T12:03:49.818Z,8.67
2022-12-31T12:06:29.006Z,8.71
2022-12-31T12:09:01.749Z,8.74
2022-12-31T12:11:32.245Z,8.76
2022-12-31T12:13:59.269Z,8.78
2022-12-31T12:16:28.453Z,8.81
2022-12-31T12:19:08.521Z,8.84
2022-12-31T12:21:46.263Z,8.87
2022-12-31T12:24:27.908Z,8.92
2022-12-31T12:26:57.441Z,8.97
2022-12-31T12:29:29.238Z,9.01
2022-12-31T12:31:57.656Z,9.07
2022-12-31T12:34:29.243Z,9.13
2022-12-31T12:36:56.686Z,9.18
2022-12-31T12:39:29.325Z,9.24
2022-12-31T12:42:00.532Z,9.31
2022-12-31T12:44:27.987Z,9.35
2022-12-31T12:46:56.244Z,9.38
2022-12-31T12:49:26.726Z,9.42
2022-12-31T12:52:06.219Z,9.45
2022-12-31T12:54:53.287Z,9.49
2022-12-31T12:58:01.548Z,9.52
2022-12-31T13:00:38.037Z,9.55
2022-12-31T13:04:07.428Z,9.58
2022-12-31T13:06:49.305Z,9.64
2022-12-31T13:09:45.891Z,9.68
2022-12-31T13:12:15.832Z,9.72
2022-12-31T13:14:56.088Z,9.74
2022-12-31T13:17:38.242Z,9.76
2022-12-31T13:20:19.227Z,9.77
2022-12-31T13:23:01.601Z,9.78
2022-12-31T13:26:02.992Z,9.81
2022-12-31T13:28:32.688Z,9.85
2022-12-31T13:31:06.823Z,9.87
2022-12-31T13:33:48.066Z,9.88
2022-12-31T13:36:19.769Z,9.89
2022-12-31T13:38:50.885Z,9.90
2022-12-31T13:41:41.305Z,9.90
2022-12-31T13:44:18.185Z,9.92
2022-12-31T13:46:51.560Z,9.94
2022-12-31T13:49:21.682Z,9.96
2022-12-31T13:51:56.482Z,9.96
2022-12-31T13:54:41.341Z,9.98
2022-12-31T13:57:29.748Z,9.98
2022-12-31T14:00:02.351Z,9.99
2022-12-31T14:02:45.566Z,10.03
2022-12-31T14:05:16.569Z,10.06
2022-12-31T14:07:49.351Z,10.09
2022-12-31T14:10:16.938Z,10.11
2022-12-31T14:13:13.297Z,10.12
2022-12-31T14:16:05.280Z,10.14
2022-12-31T14:18:50.993Z,10.17
2022-12-31T14:21:43.210Z,10.20
2022-12-31T14:24:16.320Z,10.23
2022-12-31T14:26:51.926Z,10.26
2022-12-31T14:29:23.090Z,10.33
2022-12-31T14:31:50.348Z,10.39
2022-12-31T14:34:35.981Z,10.45
2022-12-31T14:37:16.441Z,10.51
2022-12-31T14:39:55.136Z,10.58
2022-12-31T14:42:37.367Z,10.63
2022-12-31T14:45:32.470Z,10.67
2022-12-31T14:48:37.664Z,10.73
2022-12-31T14:51:05.689Z,10.81
2022-12-31T14:53:33.202Z,10.88
2022-12-31T14:56:01.651Z,10.91
2022-12-31T14:58:35.891Z,10.93
2022-12-31T15:01:19.364Z,10.93
2022-12-31T15:03:46.836Z,10.97
2022-12-31T15:06:28.185Z,11.00
2022-12-31T15:09:37.811Z,11.02
2022-12-31T15:12:11.052Z,11.07
2022-12-31T15:14:52.648Z,11.10
2022-12-31T15:17:44.986Z,11.13
2022-12-31T15:20:47.449Z,11.16
2022-12-31T15:23:31.818Z,11.19
2022-12-31T15:26:01.181Z,11.21
2022-12-31T15:28:34.991Z,11.23
2022-12-31T15:31:17.483Z,11.24
2022-12-31T15:34:06.921Z,11.25
2022-12-31T15:36:38.992Z,11.26
2022-12-31T15:39:12.451Z,11.27
2022-12-31T15:42:10.371Z,11.27
2022-12-31T15:44:51.609Z,11.28
2022-12-31T15:47:41.548Z,11.29
2022-12-31T15:50:16.193Z,11.31
2022-12-31T15:52:48.143Z,11.33
2022-12-31T15:55:48.611Z,11.35
2022-12-31T15:58:23.246Z,11.38
2022-12-31T16:01:07.182Z,11.38
2022-12-31T16:03:34.901Z,11.38
2022-12-31T16:06:04.887Z,11.37
2022-12-31T16:08:34.454Z,11.38
2022-12-31T16:11:04.976Z,11.40
2022-12-31T16:13:35.377Z,11.42
2022-12-31T16:16:06.367Z,11.45
2022-12-31T16:18:40.557Z,11.48
2022-12-31T16:21:23.045Z,11.50
2022-12-31T16:23:52.759Z,11.52
2022-12-31T16:26:20.160Z,11.55
2022-12-31T16:28:49.332Z,11.55
2022-12-31T16:31:20.128Z,11.55
2022-12-31T16:33:47.879Z,11.56
2022-12-31T16:36:21.338Z,11.57
2022-12-31T16:38:49.307Z,11.59
2022-12-31T16:41:21.885Z,11.60
2022-12-31T16:43:50.601Z,11.61
2022-12-31T16:46:28.918Z,11.63
2022-12-31T16:48:59.792Z,11.63
2022-12-31T16:51:32.673Z,11.63
2022-12-31T16:54:01.955Z,11.63
2022-12-31T16:56:33.577Z,11.63
2022-12-31T16:59:05.239Z,11.63
2022-12-31T17:01:35.990Z,11.64
2022-12-31T17:04:09.108Z,11.65
2022-12-31T17:06:36.518Z,11.66
2022-12-31T17:09:20.956Z,11.66
2022-12-31T17:11:51.347Z,11.65
2022-12-31T17:14:23.296Z,11.64
2022-12-31T17:17:02.237Z,11.64
2022-12-31T17:19:45.210Z,11.65
2022-12-31T17:22:34.272Z,11.67
2022-12-31T17:25:22.485Z,11.67
2022-12-31T17:28:18.449Z,11.66
2022-12-31T17:30:45.678Z,11.67
2022-12-31T17:33:12.885Z,11.69
2022-12-31T17:35:42.561Z,11.71
2022-12-31T17:38:22.080Z,11.73
2022-12-31T17:40:51.745Z,11.76
2022-12-31T17:43:23.946Z,11.78
2022-12-31T17:45:52.289Z,11.80
2022-12-31T17:48:20.636Z,11.82
2022-12-31T17:50:48.433Z,11.85
2022-12-31T17:53:16.019Z,11.87
2022-12-31T17:55:46.094Z,11.88
2022-12-31T17:58:34.511Z,11.90
2022-12-31T18:01:05.223Z,11.92
2022-12-31T18:03:32.773Z,11.93
2022-12-31T18:06:00.237Z,11.93
2022-12-31T18:08:27.489Z,11.93
2022-12-31T18:10:55.486Z,11.94
2022-12-31T18:13:27.449Z,11.95
2022-12-31T18:15:55.177Z,11.96
2022-12-31T18:18:26.584Z,11.96
2022-12-31T18:21:00.097Z,11.97
2022-12-31T18:23:41.653Z,11.96
2022-12-31T18:26:17.325Z,11.96
2022-12-31T18:28:44.913Z,11.96
2022-12-31T18:31:19.183Z,11.97
2022-12-31T18:33:47.328Z,11.98
2022-12-31T18:36:16.891Z,11.99
2022-12-31T18:38:44.291Z,11.99
2022-12-31T18:41:24.417Z,11.99
2022-12-31T18:43:51.573Z,11.99
2022-12-31T18:46:21.510Z,12.01
2022-12-31T18:48:48.952Z,12.01
2022-12-31T18:51:17.622Z,12.02
2022-12-31T18:53:45.423Z,12.03
2022-12-31T18:56:14.829Z,12.03
2022-12-31T18:58:42.753Z,12.02
2022-12-31T19:01:26.402Z,12.00
2022-12-31T19:03:58.217Z,11.98
2022-12-31T19:06:25.799Z,11.95
2022-12-31T19:08:53.028Z,11.94
2022-12-31T19:11:21.048Z,11.92
2022-12-31T19:13:48.774Z,11.89
2022-12-31T19:16:16.185Z,11.86
2022-12-31T19:18:43.298Z,11.84
2022-12-31T19:21:15.341Z,11.83
2022-12-31T19:23:42.725Z,11.82
2022-12-31T19:26:17.546Z,11.81
2022-12-31T19:28:45.979Z,11.82
2022-12-31T19:31:13.770Z,11.81
2022-12-31T19:33:41.193Z,11.80
2022-12-31T19:36:16.905Z,11.80
2022-12-31T19:38:45.058Z,11.81
2022-12-31T19:41:18.055Z,11.81
2022-12-31T19:43:46.757Z,11.81
2022-12-31T19:46:15.624Z,11.82
2022-12-31T19:48:43.304Z,11.81
2022-12-31T19:51:15.120Z,11.80
2022-12-31T19:53:42.206Z,11.79
2022-12-31T19:56:18.843Z,11.79
2022-12-31T19:58:46.397Z,11.79
2022-12-31T20:01:22.052Z,11.79
2022-12-31T20:03:50.067Z,11.79
2022-12-31T20:06:18.397Z,11.78
2022-12-31T20:08:46.677Z,11.77
2022-12-31T20:11:17.510Z,11.76
2022-12-31T20:13:45.196Z,11.75
2022-12-31T20:16:15.639Z,11.74
2022-12-31T20:18:46.333Z,11.73
2022-12-31T20:21:25.803Z,11.73
2022-12-31T20:23:54.403Z,11.73
2022-12-31T20:26:22.858Z,11.74
2022-12-31T20:28:51.019Z,11.74
2022-12-31T20:31:21.599Z,11.75
2022-12-31T20:33:49.381Z,11.77
2022-12-31T20:36:17.670Z,11.77
2022-12-31T20:38:45.065Z,11.79
2022-12-31T20:41:18.108Z,11.81
2022-12-31T20:43:46.177Z,11.83
2022-12-31T20:46:16.544Z,11.85
2022-12-31T20:48:45.162Z,11.87
2022-12-31T20:51:14.191Z,11.90
2022-12-31T20:54:05.938Z,11.94
2022-12-31T20:56:35.261Z,11.97
2022-12-31T20:59:03.541Z,12.00
2022-12-31T21:01:55.104Z,12.01
2022-12-31T21:04:18.323Z,12.03
2022-12-31T21:06:45.628Z,12.05
2022-12-31T21:09:12.723Z,12.07
2022-12-31T21:11:58.897Z,12.09
2022-12-31T21:14:26.078Z,12.13
2022-12-31T21:16:53.152Z,12.16
2022-12-31T21:19:20.197Z,12.21
2022-12-31T21:21:48.359Z,12.25
2022-12-31T21:24:20.206Z,12.26
2022-12-31T21:26:50.601Z,12.27
2022-12-31T21:29:17.711Z,12.30
2022-12-31T21:31:44.810Z,12.33
2022-12-31T21:34:11.929Z,12.33
2022-12-31T21:36:39.010Z,12.34
2022-12-31T21:39:06.026Z,12.38
2022-12-31T21:41:51.120Z,12.40
2022-12-31T21:44:20.961Z,12.41
2022-12-31T21:47:25.187Z,12.42
2022-12-31T21:49:36.434Z,12.42
2022-12-31T21:52:22.634Z,12.43
2022-12-31T21:55:08.341Z,12.44
2022-12-31T21:57:59.040Z,12.45
2022-12-31T22:00:43.157Z,12.45
2022-12-31T22:03:24.494Z,12.45
2022-12-31T22:06:09.546Z,12.48
2022-12-31T22:08:37.182Z,12.51
2022-12-31T22:11:04.438Z,12.54
2022-12-31T22:13:32.304Z,12.55
2022-12-31T22:16:04.914Z,12.57
2022-12-31T22:18:39.183Z,12.59
2022-12-31T22:21:19.333Z,12.61
2022-12-31T22:23:49.691Z,12.62
2022-12-31T22:26:19.134Z,12.64
2022-12-31T22:28:47.203Z,12.66
2022-12-31T22:31:24.674Z,12.67
2022-12-31T22:33:52.490Z,12.66
2022-12-31T22:36:22.291Z,12.65
2022-12-31T22:38:50.973Z,12.66
2022-12-31T22:41:20.781Z,12.68
2022-12-31T22:43:51.794Z,12.69
2022-12-31T22:46:21.974Z,12.69
2022-12-31T22:48:49.552Z,12.69
2022-12-31T22:51:17.944Z,12.67
2022-12-31T22:53:45.795Z,12.67
2022-12-31T22:56:16.248Z,12.66
2022-12-31T22:58:44.227Z,12.65
2022-12-31T23:01:19.204Z,12.65
2022-12-31T23:03:47.327Z,12.64
2022-12-31T23:06:15.208Z,12.62
2022-12-31T23:09:02.442Z,12.61
2022-12-31T23:11:30.111Z,12.59
2022-12-31T23:14:16.121Z,12.58
2022-12-31T23:17:30.486Z,12.58
2022-12-31T23:20:07.621Z,12.56
2022-12-31T23:22:53.354Z,12.53
2022-12-31T23:25:20.657Z,12.51
2022-12-31T23:27:47.757Z,12.51
2022-12-31T23:30:14.861Z,12.52
2022-12-31T23:32:42.311Z,12.52
2022-12-31T23:35:10.276Z,12.51
2022-12-31T23:37:37.669Z,12.52
2022-12-31T23:40:05.304Z,12.53
2022-12-31T23:42:32.425Z,12.54
2022-12-31T23:44:59.475Z,12.56
2022-12-31T23:47:26.578Z,12.56
2022-12-31T23:49:53.702Z,12.54
2022-12-31T23:52:20.903Z,12.53
2022-12-31T23:54:48.127Z,12.53
2022-12-31T23:57:15.352Z,12.54
2022-12-31T23:59:42.452Z,12.56
